Time;durP1;ratioP1;P1;durP2;ratioP2;P2;SDS_P1;SDS_P2;PMS_P1;PMS_P2;Temp;Humidity;BMP_temperature;BMP_pressure;BME280_temperature;BME280_humidity;BME280_pressure;Samples;Min_cycle;Max_cycle;Signal;HPM_P1;HPM_P2
2022/02/09 00:02:00;;;;;;;16.95;12.68;;;;;;;21.78;26.81;95065.91;4900774;28;99247;-41
2022/02/09 00:04:32;;;;;;;12.27;9.90;;;;;;;21.78;26.78;95065.91;4895110;28;96950;-43
2022/02/09 00:09:23;;;;;;;13.43;9.20;;;;;;;21.55;27.39;95056.09;4896506;28;97874;-42
2022/02/09 00:12:03;;;;;;;13.30;9.38;;;;;;;21.62;26.96;95060.84;4896962;28;97693;-44
2022/02/09 00:14:51;;;;;;;12.32;8.88;;;;;;;21.61;26.85;95076.53;4896918;28;96654;-41
2022/02/09 00:41:13;;;;;;;11.65;8.85;;;;;;;21.67;26.39;95095.38;4915510;28;97952;-44
2022/02/09 01:56:20;;;;;;;14.25;8.88;;;;;;;21.23;26.58;95078.94;4893963;28;97542;-49
2022/02/09 01:58:45;;;;;;;12.68;9.52;;;;;;;21.30;26.38;95086.38;4893201;28;99354;-46
2022/02/09 02:01:10;;;;;;;13.73;11.05;;;;;;;21.36;26.33;95075.78;4895260;28;96784;-47
2022/02/09 02:03:36;;;;;;;16.33;12.77;;;;;;;21.32;26.44;95079.31;4894674;28;96980;-45
2022/02/09 02:06:01;;;;;;;15.77;13.07;;;;;;;21.22;26.31;95071.88;4894823;28;99378;-49
2022/02/09 02:08:28;;;;;;;11.00;9.82;;;;;;;21.46;26.37;95086.75;4895063;28;98973;-48
2022/02/09 02:11:04;;;;;;;13.27;9.80;;;;;;;21.27;26.52;95095.41;4894971;28;97170;-50
2022/02/09 02:19:01;;;;;;;12.65;10.35;;;;;;;21.26;26.58;95110.31;4894642;28;97668;-48
2022/02/09 02:21:48;;;;;;;15.10;11.90;;;;;;;21.25;26.41;95106.78;4894885;28;96798;-47
2022/02/09 02:27:25;;;;;;;17.92;12.80;;;;;;;21.02;26.79;95113.44;4892022;28;98000;-42
2022/02/09 02:33:00;;;;;;;13.25;10.27;;;;;;;21.18;26.37;95121.31;4894479;28;96721;-45
2022/02/09 02:46:37;;;;;;;16.48;12.88;;;;;;;21.14;26.55;95095.81;4902281;28;96816;-49
2022/02/09 02:58:00;;;;;;;12.55;9.68;;;;;;;21.30;26.71;95122.09;4897954;28;97027;-44
2022/02/09 03:13:13;;;;;;;9.65;7.63;;;;;;;21.53;26.42;95129.16;4875671;28;97089;-40
2022/02/09 03:15:48;;;;;;;9.77;7.00;;;;;;;21.24;26.32;95129.94;4878457;28;96897;-48
2022/02/09 03:55:24;;;;;;;11.35;8.40;;;;;;;21.39;26.37;95113.47;4834074;29;98125;-39
2022/02/09 03:57:50;;;;;;;9.52;7.82;;;;;;;21.48;26.42;95117.38;4869827;28;96981;-43
2022/02/09 04:00:20;;;;;;;10.32;7.75;;;;;;;21.50;26.28;95114.22;4896986;28;96910;-40
2022/02/09 04:02:46;;;;;;;10.38;7.35;;;;;;;21.47;26.27;95109.53;4914160;28;99483;-43
2022/02/09 04:05:12;;;;;;;9.75;7.85;;;;;;;21.36;27.27;95106.00;4915690;28;99371;-42
2022/02/09 04:07:38;;;;;;;10.48;7.47;;;;;;;21.42;26.85;95107.97;4916149;28;96858;-46
2022/02/09 04:10:06;;;;;;;9.20;6.75;;;;;;;21.46;26.83;95118.97;4915843;28;97119;-44
2022/02/09 04:12:39;;;;;;;9.18;7.03;;;;;;;21.26;27.02;95122.09;4915653;28;99423;-41
2022/02/09 04:15:21;;;;;;;8.43;7.13;;;;;;;21.18;26.84;95115.03;4897380;28;99202;-45
2022/02/09 04:36:57;;;;;;;7.65;6.22;;;;;;;20.73;27.16;95113.38;4894173;28;96983;-43
2022/02/09 04:39:32;;;;;;;7.70;5.88;;;;;;;20.74;27.17;95114.97;4913420;28;96927;-42
2022/02/09 04:55:13;;;;;;;11.55;9.60;;;;;;;20.92;27.43;95102.47;4878777;28;97951;-44
2022/02/09 04:57:52;;;;;;;14.98;12.65;;;;;;;21.00;27.35;95118.53;4898467;28;99377;-47
2022/02/09 05:26:41;;;;;;;28.27;23.25;;;;;;;21.78;28.02;95131.91;4910828;28;98014;-37
2022/02/09 05:29:07;;;;;;;27.50;22.75;;;;;;;21.89;28.04;95135.41;4895095;28;99260;-42
2022/02/09 05:31:32;;;;;;;26.80;19.52;;;;;;;22.02;27.80;95144.03;4895515;28;96672;-44
2022/02/09 05:33:58;;;;;;;28.17;19.88;;;;;;;21.97;28.31;95132.66;4894798;28;96914;-43
2022/02/09 05:36:23;;;;;;;33.33;20.45;;;;;;;22.07;28.30;95140.09;4894768;28;99230;-41
2022/02/09 05:38:49;;;;;;;24.60;18.88;;;;;;;21.98;28.86;95134.22;4914550;28;97822;-40
2022/02/09 05:41:15;;;;;;;34.65;16.90;;;;;;;22.18;27.48;95135.31;4894124;28;97172;-45
2022/02/09 05:43:40;;;;;;;20.23;14.32;;;;;;;22.20;27.02;95135.72;4895360;28;96744;-48
2022/02/09 05:46:55;;;;;;;20.67;16.38;;;;;;;22.31;26.66;95137.66;4894614;28;97813;-45
2022/02/09 05:52:04;;;;;;;34.33;28.92;;;;;;;22.06;27.33;95149.53;4894852;28;97473;-49
2022/02/09 05:55:08;;;;;;;26.63;21.37;;;;;;;22.29;26.85;95140.81;4890244;28;99163;-48
2022/02/09 05:59:37;;;;;;;26.50;20.20;;;;;;;21.97;26.99;95154.66;4895425;28;96886;-48
2022/02/09 06:02:03;;;;;;;29.63;22.88;;;;;;;22.03;27.15;95162.09;4894961;28;96820;-46
2022/02/09 06:04:28;;;;;;;32.20;22.63;;;;;;;21.89;27.43;95157.41;4895355;28;96910;-49
2022/02/09 06:06:54;;;;;;;27.90;21.58;;;;;;;21.73;27.36;95170.78;4894974;28;99743;-44
2022/02/09 06:09:19;;;;;;;25.20;21.63;;;;;;;21.59;27.34;95166.84;4895010;28;97140;-46
2022/02/09 06:12:05;;;;;;;24.88;21.08;;;;;;;21.53;27.54;95168.41;4894582;28;96821;-45
2022/02/09 06:19:47;;;;;;;24.10;19.33;;;;;;;21.33;27.52;95185.28;4893596;28;97195;-45
2022/02/09 06:22:13;;;;;;;20.88;18.20;;;;;;;21.14;27.83;95191.16;4895016;28;96737;-47
2022/02/09 06:24:41;;;;;;;23.67;18.35;;;;;;;21.21;27.62;95196.66;4895094;28;96926;-45
2022/02/09 06:27:07;;;;;;;23.60;18.02;;;;;;;21.13;27.81;95195.88;4894527;28;98936;-43
2022/02/09 06:29:32;;;;;;;22.10;16.75;;;;;;;21.21;27.39;95202.16;4894820;28;99546;-42
2022/02/09 06:32:06;;;;;;;20.23;16.88;;;;;;;21.12;27.67;95199.78;4894870;28;96842;-43
2022/02/09 06:34:32;;;;;;;19.40;15.50;;;;;;;21.14;27.72;95207.63;4894949;28;97880;-40
2022/02/09 06:37:00;;;;;;;18.67;14.98;;;;;;;21.02;27.62;95212.31;4894319;28;99021;-49
2022/02/09 06:39:26;;;;;;;17.40;13.88;;;;;;;21.03;27.63;95208.38;4894362;28;99369;-43
2022/02/09 06:41:52;;;;;;;17.83;14.95;;;;;;;21.13;27.67;95215.09;4894885;28;96613;-46
2022/02/09 06:44:19;;;;;;;18.35;14.30;;;;;;;21.29;27.28;95209.22;4895270;28;97768;-43
2022/02/09 06:46:45;;;;;;;16.70;14.20;;;;;;;21.22;27.43;95213.91;4897916;28;99658;-45
2022/02/09 06:49:10;;;;;;;17.75;13.48;;;;;;;21.20;27.41;95214.31;4897919;28;98782;-47
2022/02/09 06:51:37;;;;;;;16.83;13.18;;;;;;;21.20;27.25;95211.56;4897993;28;96944;-43
2022/02/09 06:54:12;;;;;;;16.13;12.82;;;;;;;21.12;27.51;95229.22;4898361;28;97540;-46
2022/02/09 06:57:05;;;;;;;15.68;11.88;;;;;;;21.07;27.42;95229.59;4897664;28;99586;-48
2022/02/09 06:59:30;;;;;;;12.43;10.93;;;;;;;21.07;27.48;95229.59;4897005;28;98979;-45
2022/02/09 07:02:05;;;;;;;12.38;11.00;;;;;;;21.11;27.50;95235.88;4896919;28;96743;-47
2022/02/09 07:04:31;;;;;;;13.90;10.57;;;;;;;21.03;27.40;95230.34;4897954;28;96764;-48
2022/02/09 07:06:57;;;;;;;12.63;10.77;;;;;;;21.14;27.15;95230.41;4897408;28;99344;-46
2022/02/09 07:09:23;;;;;;;14.00;10.82;;;;;;;21.06;27.33;95228.81;4897461;28;99210;-45
2022/02/09 07:11:49;;;;;;;12.60;9.77;;;;;;;21.09;27.26;95227.22;4898060;28;96760;-49
2022/02/09 07:14:19;;;;;;;14.98;10.05;;;;;;;21.18;27.07;95235.91;4898125;28;96908;-46
2022/02/09 07:16:45;;;;;;;11.68;9.77;;;;;;;21.08;27.18;95217.41;4897425;28;100102;-45
2022/02/09 07:19:10;;;;;;;11.80;8.82;;;;;;;20.98;27.51;95211.50;4897528;28;99361;-42
2022/02/09 07:21:38;;;;;;;14.43;8.93;;;;;;;21.03;27.34;95224.88;4897985;28;96762;-45
2022/02/09 07:24:07;;;;;;;10.82;9.00;;;;;;;20.98;27.39;95225.25;4897518;28;97258;-46
2022/02/09 07:29:10;;;;;;;10.55;8.48;;;;;;;21.03;27.46;95235.84;4896217;28;97748;-51
2022/02/09 07:31:35;;;;;;;8.65;7.68;;;;;;;21.10;27.04;95228.81;4897228;28;97443;-50
2022/02/09 07:34:01;;;;;;;8.90;8.00;;;;;;;21.06;27.06;95230.75;4897441;28;96960;-43
2022/02/09 07:36:31;;;;;;;8.85;7.70;;;;;;;21.04;27.33;95236.66;4896956;28;99159;-50
2022/02/09 07:38:57;;;;;;;8.18;7.38;;;;;;;20.98;27.27;95211.50;4897299;28;97793;-46
2022/02/09 07:41:23;;;;;;;8.52;7.38;;;;;;;20.99;27.08;95231.53;4897414;28;96538;-41
2022/02/09 07:44:03;;;;;;;8.15;7.00;;;;;;;21.00;27.26;95228.38;4897778;28;96887;-47
2022/02/09 07:51:42;;;;;;;7.22;6.45;;;;;;;21.08;27.16;95231.97;4895230;28;97845;-50
2022/02/09 07:54:08;;;;;;;8.02;6.35;;;;;;;21.06;27.01;95228.81;4897184;28;96771;-45
2022/02/09 07:56:39;;;;;;;8.27;6.55;;;;;;;21.02;27.18;95234.28;4896577;28;99489;-45
2022/02/09 07:59:06;;;;;;;8.15;6.22;;;;;;;20.97;27.07;95231.91;4896767;28;99079;-43
2022/02/09 08:01:31;;;;;;;7.18;5.85;;;;;;;20.86;27.14;95236.59;4896237;28;97118;-44
2022/02/09 08:03:57;;;;;;;7.63;6.70;;;;;;;21.01;27.18;95243.69;4897028;28;97226;-44
2022/02/09 08:06:25;;;;;;;7.03;5.88;;;;;;;21.02;27.07;95239.00;4896799;28;99567;-49
2022/02/09 08:08:53;;;;;;;8.45;5.57;;;;;;;20.98;27.09;95238.97;4896494;28;99376;-46
2022/02/09 08:11:27;;;;;;;8.00;5.68;;;;;;;21.01;26.98;95243.69;4896568;28;96872;-48
2022/02/09 08:27:22;;;;;;;5.47;4.97;;;;;;;21.05;26.77;95237.44;4895980;28;97967;-44
2022/02/09 08:30:48;;;;;;;7.40;5.10;;;;;;;21.10;26.92;95242.53;4896198;28;99839;-50
2022/02/09 08:32:40;;;;;;;5.30;4.70;;;;;;;21.04;26.89;95217.44;4888746;28;96924;-41
2022/02/09 08:35:05;;;;;;;;;;;;;;;21.18;26.61;95220.22;4897333;28;96824;-47
2022/02/09 08:37:31;;;;;;;5.25;4.75;;;;;;;21.11;26.71;95214.69;4896427;28;99676;-41
2022/02/09 08:39:57;;;;;;;4.95;4.50;;;;;;;21.17;26.64;95223.34;4896323;28;97677;-45
2022/02/09 08:42:23;;;;;;;5.20;4.70;;;;;;;21.20;26.61;95228.06;4896070;28;96945;-42
2022/02/09 08:44:48;;;;;;;4.72;4.25;;;;;;;21.16;26.71;95222.56;4896208;28;97111;-44
2022/02/09 08:47:14;;;;;;;4.53;4.13;;;;;;;21.22;26.46;95231.19;4895754;28;99436;-47
2022/02/09 08:49:39;;;;;;;5.28;3.83;;;;;;;21.25;26.60;95224.13;4896034;28;99378;-44
2022/02/09 08:52:05;;;;;;;4.35;3.95;;;;;;;21.31;26.47;95234.34;4895876;28;97065;-48
2022/02/09 08:54:30;;;;;;;4.65;4.20;;;;;;;21.40;26.33;95236.72;4896384;28;96919;-48
2022/02/09 08:56:56;;;;;;;4.53;3.78;;;;;;;21.43;26.35;95240.66;4896116;28;97957;-46
2022/02/09 08:59:28;;;;;;;6.50;4.25;;;;;;;21.47;26.38;95246.94;4896187;28;99216;-44
2022/02/09 09:02:01;;;;;;;4.55;3.88;;;;;;;21.57;26.02;95240.66;4895869;28;96870;-45
2022/02/09 09:04:50;;;;;;;4.50;4.10;;;;;;;21.42;26.35;95250.84;4896083;28;96864;-47
2022/02/09 09:07:21;;;;;;;3.95;3.55;;;;;;;21.55;26.02;95251.25;4894472;28;98967;-47
2022/02/09 09:09:57;;;;;;;4.13;3.72;;;;;;;21.61;25.94;95252.44;4895582;28;99441;-42
2022/02/09 10:34:36;;;;;;;2.60;2.40;;;;;;;22.32;25.60;95216.25;4890661;28;97905;-44
2022/02/09 10:37:03;;;;;;;2.72;2.53;;;;;;;22.39;25.53;95209.94;4893219;28;99252;-46
2022/02/09 10:39:44;;;;;;;3.25;2.63;;;;;;;22.33;25.58;95195.81;4893243;28;96741;-45
2022/02/09 10:42:23;;;;;;;2.78;2.50;;;;;;;22.42;25.45;95214.66;4893342;28;96926;-46
2022/02/09 10:44:52;;;;;;;2.83;2.50;;;;;;;22.44;25.57;95213.13;4893149;28;99548;-43
2022/02/09 10:47:24;;;;;;;2.70;2.47;;;;;;;22.42;25.58;95209.94;4893469;28;99397;-43
2022/02/09 10:50:17;;;;;;;2.55;2.35;;;;;;;22.45;25.67;95206.44;4893466;28;96780;-42
2022/02/09 10:52:49;;;;;;;2.60;2.40;;;;;;;22.50;25.56;95217.03;4893415;28;96997;-46
2022/02/09 10:55:41;;;;;;;2.38;2.17;;;;;;;22.51;25.60;95206.78;4892609;28;99843;-50
2022/02/09 10:58:09;;;;;;;2.55;2.22;;;;;;;22.50;25.61;95211.53;4892890;28;99097;-43
2022/02/09 11:00:35;;;;;;;2.40;2.10;;;;;;;22.41;25.65;95202.88;4893204;28;96892;-45
2022/02/09 11:03:00;;;;;;;2.30;2.10;;;;;;;22.50;25.60;95199.72;4852021;28;1222068;-44
2022/02/09 11:05:26;;;;;;;2.80;2.50;;;;;;;22.49;25.70;95207.22;4893614;28;99489;-44
2022/02/09 11:07:52;;;;;;;2.60;2.40;;;;;;;22.46;25.87;95209.94;4893669;28;99337;-42
2022/02/09 11:10:17;;;;;;;2.78;2.40;;;;;;;22.59;25.55;95207.56;4893779;28;96911;-42
2022/02/09 11:12:43;;;;;;;2.45;2.25;;;;;;;22.59;25.65;95197.31;4894429;28;96862;-42
2022/02/09 11:15:10;;;;;;;3.00;2.65;;;;;;;22.60;25.55;95206.38;4893963;28;99693;-48
2022/02/09 11:17:37;;;;;;;2.47;2.28;;;;;;;22.60;25.49;95217.41;4893607;28;99250;-44
2022/02/09 11:20:03;;;;;;;3.20;2.40;;;;;;;22.60;25.64;95215.41;4876860;28;96834;-47
2022/02/09 11:22:39;;;;;;;2.35;2.15;;;;;;;22.56;25.54;95220.16;4894220;28;96911;-45
2022/02/09 11:25:09;;;;;;;4.38;2.20;;;;;;;22.54;25.72;95216.25;4893892;28;99725;-46
2022/02/09 11:27:38;;;;;;;2.85;2.13;;;;;;;22.50;25.73;95211.53;4893770;28;99179;-48
2022/02/09 11:30:08;;;;;;;2.20;2.08;;;;;;;22.48;25.70;95219.41;4893658;28;96879;-45
2022/02/09 11:35:25;;;;;;;2.30;2.10;;;;;;;22.29;25.91;95217.06;4897114;28;97364;-51
2022/02/09 11:40:43;;;;;;;3.03;2.40;;;;;;;22.25;25.98;95221.78;4896982;28;96861;-46
2022/02/09 11:43:19;;;;;;;3.58;2.28;;;;;;;22.19;26.04;95219.44;4897068;28;96880;-44
2022/02/09 12:00:38;;;;;;;2.60;2.40;;;;;;;22.10;26.08;95224.56;4862374;28;98584;-52
2022/02/09 12:09:46;;;;;;;2.50;2.30;;;;;;;21.97;26.16;95213.19;4896742;28;97153;-40
2022/02/09 12:12:16;;;;;;;2.58;2.38;;;;;;;21.97;26.43;95218.69;4895798;28;98720;-44
2022/02/09 12:20:18;;;;;;;3.60;2.42;;;;;;;21.96;26.19;95232.84;4896127;28;97354;-45
2022/02/09 12:25:48;;;;;;;2.63;2.30;;;;;;;21.90;26.29;95243.44;4894906;28;97124;-43
2022/02/09 12:28:23;;;;;;;3.22;2.25;;;;;;;21.95;26.10;95232.03;4896385;28;96838;-47
2022/02/09 12:30:49;;;;;;;3.00;2.70;;;;;;;21.95;26.20;95234.78;4895713;28;99258;-43
2022/02/09 12:33:22;;;;;;;3.03;2.47;;;;;;;21.96;26.19;95238.34;4879825;28;99343;-45
2022/02/09 12:35:48;;;;;;;2.58;2.10;;;;;;;21.89;26.09;95239.91;4879146;28;97230;-41
2022/02/09 12:38:14;;;;;;;3.58;2.40;;;;;;;21.91;26.17;95237.56;4896426;28;96939;-46
2022/02/09 12:40:39;;;;;;;3.25;2.20;;;;;;;21.92;26.16;95247.38;4895405;28;98257;-47
2022/02/09 12:43:06;;;;;;;2.45;2.20;;;;;;;21.86;26.20;95235.19;4878137;28;99566;-45
2022/02/09 12:45:33;;;;;;;2.78;2.42;;;;;;;21.91;26.14;95243.06;4896189;28;96697;-47
2022/02/09 12:48:00;;;;;;;2.55;2.35;;;;;;;21.90;26.21;95241.50;4896133;28;96925;-45
2022/02/09 12:50:30;;;;;;;3.90;2.38;;;;;;;21.86;26.22;95246.19;4895992;28;99684;-47
2022/02/09 12:52:56;;;;;;;3.05;2.40;;;;;;;21.87;26.37;95246.97;4895688;28;99236;-48
2022/02/09 12:55:28;;;;;;;3.28;2.60;;;;;;;21.64;26.52;95245.41;4896171;28;96693;-44
2022/02/09 12:57:55;;;;;;;2.88;2.30;;;;;;;21.69;26.32;95249.72;4896029;28;96914;-49
2022/02/09 13:00:22;;;;;;;2.75;2.40;;;;;;;21.67;26.50;95243.84;4895324;28;99379;-46
2022/02/09 13:02:47;;;;;;;3.28;2.00;;;;;;;21.73;26.38;95242.25;4894986;28;99293;-44
2022/02/09 13:05:13;;;;;;;3.00;2.60;;;;;;;21.80;26.20;95241.47;4895382;28;96671;-44
2022/02/09 13:07:38;;;;;;;2.40;2.20;;;;;;;21.64;26.40;95245.41;4896319;28;96923;-50
2022/02/09 13:10:04;;;;;;;2.70;2.50;;;;;;;21.67;26.68;95238.34;4895254;28;99695;-46
2022/02/09 13:12:31;;;;;;;2.50;2.30;;;;;;;21.71;26.51;95239.91;4895470;28;99938;-47
2022/02/09 13:15:09;;;;;;;2.28;2.08;;;;;;;21.65;26.56;95237.94;4895840;28;96725;-52
2022/02/09 14:48:17;;;;;;;13.30;9.52;;;;;;;21.75;27.36;95312.19;4888820;28;97235;-55
2022/02/09 14:53:30;;;;;;;11.98;9.70;;;;;;;21.74;27.27;95304.31;4892664;28;97617;-52
2022/02/09 14:58:42;;;;;;;10.55;9.45;;;;;;;21.75;27.27;95300.41;4893745;28;97863;-39
2022/02/09 15:01:30;;;;;;;10.18;9.07;;;;;;;21.62;27.33;95295.28;4894155;28;99311;-46
2022/02/09 15:04:18;;;;;;;10.52;9.40;;;;;;;21.64;27.33;95299.59;4894716;28;96807;-45
2022/02/09 15:09:33;;;;;;;10.80;8.48;;;;;;;21.50;27.60;95298.34;4897607;28;97882;-41
2022/02/09 15:12:05;;;;;;;9.88;8.50;;;;;;;21.51;27.46;95280.69;4897901;28;99402;-44
2022/02/09 15:14:48;;;;;;;10.07;8.23;;;;;;;21.53;27.45;95286.59;4898001;28;96762;-46
2022/02/09 15:20:24;;;;;;;9.10;8.20;;;;;;;21.43;27.48;95281.88;4896764;28;97866;-44
2022/02/09 15:22:34;;;;;;;8.55;7.40;;;;;;;21.51;27.31;95290.91;4896513;28;98765;-47
2022/02/09 15:24:59;;;;;;;8.98;7.60;;;;;;;21.45;27.45;95293.28;4898000;28;96867;-41
2022/02/09 15:27:26;;;;;;;8.30;7.22;;;;;;;21.46;27.47;95294.84;4897931;28;97451;-42
2022/02/09 15:29:53;;;;;;;10.30;7.40;;;;;;;21.52;27.23;95297.97;4897568;28;97942;-48
2022/02/09 15:32:30;;;;;;;8.43;7.55;;;;;;;21.48;27.37;95296.00;4897198;28;99222;-50
2022/02/09 15:35:10;;;;;;;7.43;6.65;;;;;;;21.47;27.30;95301.91;4897536;28;96915;-41
2022/02/09 15:37:47;;;;;;;8.05;7.25;;;;;;;21.46;27.31;95297.59;4897938;28;97050;-45
2022/02/09 15:40:25;;;;;;;8.00;7.20;;;;;;;21.37;27.54;95297.16;4897372;28;99479;-43
2022/02/09 15:56:25;;;;;;;6.22;5.63;;;;;;;21.42;27.40;95310.53;4895223;28;96761;-50
2022/02/09 16:20:46;;;;;;;5.93;5.32;;;;;;;21.35;27.52;95327.78;4895991;28;96887;-45
2022/02/09 16:46:34;;;;;;;5.15;4.65;;;;;;;21.36;27.51;95356.06;4894268;28;97689;-48
2022/02/09 16:49:08;;;;;;;5.25;4.75;;;;;;;21.22;27.66;95354.81;4895787;28;97150;-41
2022/02/09 16:51:44;;;;;;;5.38;4.28;;;;;;;21.19;27.50;95347.34;4896028;28;97090;-47
2022/02/09 16:54:30;;;;;;;4.70;4.30;;;;;;;21.18;27.64;95356.75;4879477;28;99593;-47
2022/02/09 17:18:51;;;;;;;4.20;3.80;;;;;;;21.23;27.39;95370.13;4894786;28;96823;-43
2022/02/09 17:21:18;;;;;;;4.15;3.78;;;;;;;21.22;27.47;95367.75;4895491;28;97406;-46
2022/02/09 17:23:44;;;;;;;4.55;4.15;;;;;;;21.27;27.39;95375.63;4896445;28;96853;-45
2022/02/09 17:26:12;;;;;;;4.55;4.00;;;;;;;21.28;27.19;95378.00;4895270;28;99301;-47
2022/02/09 17:28:37;;;;;;;4.53;4.03;;;;;;;21.32;27.46;95384.31;4894605;28;99468;-47
2022/02/09 17:57:52;;;;;;;4.30;3.90;;;;;;;21.21;27.46;95399.94;4893958;28;99269;-46
2022/02/09 18:00:18;;;;;;;3.75;3.45;;;;;;;21.22;27.59;95412.50;4895000;28;99414;-45
2022/02/09 18:02:48;;;;;;;4.45;3.85;;;;;;;21.27;27.48;95414.88;4894542;28;96685;-48
2022/02/09 18:05:24;;;;;;;4.55;3.95;;;;;;;21.26;27.51;95402.31;4894890;28;96852;-43
2022/02/09 18:07:57;;;;;;;4.10;3.70;;;;;;;21.27;27.44;95408.59;4895031;28;99468;-46
2022/02/09 18:29:45;;;;;;;4.78;3.78;;;;;;;21.22;27.47;95412.50;4894221;28;97239;-42
2022/02/09 18:32:56;;;;;;;;;;;;;;;21.29;27.38;95415.28;4895004;28;99382;-42
2022/02/09 18:43:09;;;;;;;4.18;3.70;;;;;;;21.26;27.31;95410.56;4897921;28;97023;-51
2022/02/09 18:45:43;;;;;;;3.95;3.65;;;;;;;21.20;27.49;95403.88;4897552;28;97122;-51
2022/02/09 19:01:36;;;;;;;3.92;3.60;;;;;;;21.03;27.77;95411.63;4896998;28;97994;-49
2022/02/09 19:04:10;;;;;;;3.72;3.42;;;;;;;21.14;27.66;95410.91;4897854;28;99588;-45
2022/02/09 19:07:08;;;;;;;4.15;3.55;;;;;;;21.15;27.62;95415.22;4897481;28;96809;-43
2022/02/09 19:17:33;;;;;;;3.90;3.50;;;;;;;21.12;27.54;95424.22;4896210;28;96842;-40
2022/02/09 19:40:40;;;;;;;3.72;3.40;;;;;;;21.16;27.64;95438.75;4896229;28;96694;-45
2022/02/09 19:54:42;;;;;;;3.50;3.20;;;;;;;21.19;27.35;95454.47;4895197;28;97911;-48
2022/02/09 19:57:09;;;;;;;3.22;2.83;;;;;;;21.26;27.32;95457.28;4896624;28;99425;-43
2022/02/09 19:59:37;;;;;;;3.25;2.92;;;;;;;21.19;27.58;95462.72;4897277;28;97165;-43
2022/02/09 20:02:03;;;;;;;3.78;3.47;;;;;;;21.15;27.63;95459.16;4896832;28;96926;-44
2022/02/09 20:04:28;;;;;;;3.67;3.38;;;;;;;21.16;27.45;95458.00;4896630;28;97924;-44
2022/02/09 20:06:54;;;;;;;4.75;3.55;;;;;;;21.16;27.56;95464.28;4896910;28;97768;-44
2022/02/09 20:09:24;;;;;;;3.47;3.13;;;;;;;21.27;27.40;95469.03;4896605;28;96971;-51
2022/02/09 20:11:49;;;;;;;3.55;3.25;;;;;;;21.14;27.57;95479.56;4896977;28;96943;-45
2022/02/09 20:14:15;;;;;;;3.28;2.97;;;;;;;21.21;27.54;95478.81;4896801;28;99420;-44
2022/02/09 20:16:40;;;;;;;3.80;3.50;;;;;;;21.22;27.46;95478.44;4896501;28;99169;-42
2022/02/09 20:19:06;;;;;;;4.00;3.50;;;;;;;21.20;27.54;95478.03;4896709;28;97332;-41
2022/02/09 20:21:31;;;;;;;3.10;2.90;;;;;;;21.20;27.54;95477.25;4896790;28;96947;-44
2022/02/09 20:23:58;;;;;;;3.28;2.97;;;;;;;21.15;27.66;95472.91;4896731;28;99455;-50
2022/02/09 20:26:24;;;;;;;3.55;3.22;;;;;;;21.21;27.54;95471.38;4896785;28;99211;-42
2022/02/09 20:29:03;;;;;;;3.47;3.17;;;;;;;21.22;27.40;95478.44;4896722;28;96946;-47
2022/02/09 20:31:33;;;;;;;3.63;3.30;;;;;;;21.22;27.49;95483.94;4896243;28;96895;-49
2022/02/09 20:34:06;;;;;;;3.65;3.35;;;;;;;21.24;27.41;95487.09;4896352;28;100103;-43
2022/02/09 20:36:32;;;;;;;4.70;2.92;;;;;;;21.26;27.40;95490.25;4895699;28;99391;-42
2022/02/09 20:39:00;;;;;;;3.72;3.35;;;;;;;21.24;27.34;95486.28;4896602;28;96945;-44
2022/02/09 20:41:26;;;;;;;3.92;3.53;;;;;;;21.22;27.46;95489.44;4879452;28;97046;-49
2022/02/09 20:44:16;;;;;;;3.53;3.00;;;;;;;21.28;27.33;95492.59;4895866;28;99307;-45
2022/02/09 20:46:42;;;;;;;3.40;3.10;;;;;;;21.25;27.40;95491.41;4896017;28;99250;-47
2022/02/09 20:49:07;;;;;;;3.35;3.13;;;;;;;21.15;27.45;95490.19;4896728;28;96763;-44
2022/02/09 20:51:33;;;;;;;3.00;2.80;;;;;;;21.19;27.51;95492.94;4896469;28;96994;-42
2022/02/09 20:53:58;;;;;;;3.47;2.90;;;;;;;21.18;27.51;95492.16;4895425;28;99514;-43
2022/02/09 20:56:24;;;;;;;3.78;2.90;;;;;;;21.17;27.46;95492.53;4895780;28;97831;-47
2022/02/09 20:58:55;;;;;;;3.33;3.03;;;;;;;21.20;27.42;95491.78;4895014;28;97279;-44
2022/02/09 21:01:27;;;;;;;3.42;3.13;;;;;;;21.25;27.37;95494.16;4895983;28;97673;-44
2022/02/09 21:03:59;;;;;;;3.60;3.30;;;;;;;21.16;27.54;95491.75;4894199;28;99729;-45
2022/02/09 21:11:44;;;;;;;3.67;3.20;;;;;;;21.15;27.45;95489.38;4895872;28;97012;-48
2022/02/09 21:14:43;;;;;;;4.00;3.17;;;;;;;21.15;27.45;95487.44;4895435;28;99703;-47
2022/02/09 21:29:01;;;;;;;3.47;3.17;;;;;;;21.14;27.64;95468.59;4894430;28;97800;-43
2022/02/09 21:31:30;;;;;;;3.17;2.90;;;;;;;21.18;27.41;95472.94;4887608;28;98795;-45
2022/02/09 21:49:31;;;;;;;3.60;3.30;;;;;;;21.16;27.49;95468.97;4895440;28;97767;-42
2022/02/09 21:52:45;;;;;;;3.05;2.85;;;;;;;21.13;27.69;95476.03;4894791;28;96878;-43
2022/02/09 21:55:15;;;;;;;3.15;2.95;;;;;;;21.05;27.51;95462.63;4884722;28;96707;-46
2022/02/09 22:16:43;;;;;;;3.35;3.05;;;;;;;21.13;27.60;95513.69;4892189;28;96808;-42
2022/02/09 22:19:32;;;;;;;3.13;2.80;;;;;;;21.10;27.95;95508.97;4894246;28;99375;-46
2022/02/09 22:48:33;;;;;;;3.75;3.45;;;;;;;21.53;29.10;95454.25;4894834;28;97209;-42
2022/02/09 22:54:27;;;;;;;4.03;3.63;;;;;;;21.70;28.82;95458.28;4894214;28;99563;-44
2022/02/09 22:56:29;;;;;;;15.48;12.68;;;;;;;21.62;29.01;95462.97;4892248;28;96822;-40
2022/02/09 22:58:55;;;;;;;16.25;13.27;;;;;;;21.66;29.37;95467.69;4894542;28;96930;-45
2022/02/09 23:01:33;;;;;;;17.52;13.27;;;;;;;21.84;28.91;95463.03;4894148;28;99447;-45
2022/02/09 23:06:52;;;;;;;14.35;12.10;;;;;;;21.73;28.85;95457.53;4891900;28;96838;-42
